Terminal Aerodrome Forecast
Issued by NWS

Home | Current Version | Previous Version | Text Only | Print | Product List | Glossary On
Versions: 1 2 3 4 5 6 7 8 9 10 11 12 13 14 15 16 17 18 19 20 21 22 23
000
FTUS43 KILX 042321
TAFDEC
TAF
KDEC 042321Z 0500/0524 VRB03KT P6SM SCT250
     FM050700 VRB03KT 4SM BR SCT250
      TEMPO 0508/0512 2SM BR
     FM051300 13004KT 6SM HZ SCT250
     FM051500 16006KT P6SM SCT035=

USA.gov is the U.S. government's official web portal to all federal, state and local government web resources and services.